SBCP/CAW METAR and TAF weather

Enter ICAO airport designator
Station Type Date Time Source
SBCP METAR 2020/02/16 20:00 UTC NOAA

SBCP 162000Z 06016KT CAVOK 30/24 Q1011


Station Type Date Time Source
SBCP Decoded METAR 2020/02/16 20:00 UTC NOAA

Campos, Brazil (SBCP) 21-45S 041-20W 11M
Feb 16, 2020 - 03:00 PM EST / 2020.02.16 2000 UTC
Wind: from the ENE (060 degrees) at 18 MPH (16 KT):0
Visibility: greater than 7 mile(s):0
Temperature: 86 F (30 C)
Heat index: 95.0 F (35.0 C):1
Dew Point: 75 F (24 C)
Relative Humidity: 70%
Pressure (altimeter): 29.85 in. Hg (1011 hPa)
ob: SBCP 162000Z 06016KT CAVOK 30/24 Q1011
cycle: 20

Station Type Date Time Source
SBCP TAF 2020/02/16 18:43 UTC NOAA

TAF SBCP 161625Z 1618/1706 04007KT 9999 SCT020 TX31/1618Z TN26/1706Z
BECMG 1618/1621 08010KT
BECMG 1622/1624 06007KT
BECMG 1700/1702 00000KT
RMK PGW

Example: see airport list